sensor_id;sensor_type;location;lat;lon;timestamp;temperature;humidity
28761;DHT22;15917;50.014;8.352;2023-03-13T00:01:19;9.00;99.90
28761;DHT22;15917;50.014;8.352;2023-03-13T00:03:45;9.00;99.90
28761;DHT22;15917;50.014;8.352;2023-03-13T00:06:11;9.00;99.90
28761;DHT22;15917;50.014;8.352;2023-03-13T00:08:37;8.90;99.90
28761;DHT22;15917;50.014;8.352;2023-03-13T00:11:05;8.90;99.90
28761;DHT22;15917;50.014;8.352;2023-03-13T00:13:31;8.90;99.90
28761;DHT22;15917;50.014;8.352;2023-03-13T00:16:05;8.90;99.90
28761;DHT22;15917;50.014;8.352;2023-03-13T00:18:31;8.90;99.90
28761;DHT22;15917;50.014;8.352;2023-03-13T00:21:01;9.00;99.90
28761;DHT22;15917;50.014;8.352;2023-03-13T00:23:28;9.00;99.90
28761;DHT22;15917;50.014;8.352;2023-03-13T00:25:58;9.00;99.90
28761;DHT22;15917;50.014;8.352;2023-03-13T00:28:24;9.00;99.90
28761;DHT22;15917;50.014;8.352;2023-03-13T00:30:59;9.00;99.90
28761;DHT22;15917;50.014;8.352;2023-03-13T00:33:26;9.00;99.90
28761;DHT22;15917;50.014;8.352;2023-03-13T00:35:51;9.00;99.90
28761;DHT22;15917;50.014;8.352;2023-03-13T00:38:17;9.00;99.90
28761;DHT22;15917;50.014;8.352;2023-03-13T00:40:43;9.00;99.90
28761;DHT22;15917;50.014;8.352;2023-03-13T00:43:08;9.00;99.90
28761;DHT22;15917;50.014;8.352;2023-03-13T00:45:34;9.00;99.90
28761;DHT22;15917;50.014;8.352;2023-03-13T00:47:59;9.00;99.90
28761;DHT22;15917;50.014;8.352;2023-03-13T00:50:25;9.00;99.90
28761;DHT22;15917;50.014;8.352;2023-03-13T00:52:50;9.00;99.90
28761;DHT22;15917;50.014;8.352;2023-03-13T00:55:16;9.10;99.90
28761;DHT22;15917;50.014;8.352;2023-03-13T00:57:41;9.00;99.90
28761;DHT22;15917;50.014;8.352;2023-03-13T01:00:07;9.00;99.90
28761;DHT22;15917;50.014;8.352;2023-03-13T01:02:34;9.00;99.90
28761;DHT22;15917;50.014;8.352;2023-03-13T01:05:05;9.00;99.90
28761;DHT22;15917;50.014;8.352;2023-03-13T01:07:31;9.00;99.90
28761;DHT22;15917;50.014;8.352;2023-03-13T01:09:56;8.90;99.90
28761;DHT22;15917;50.014;8.352;2023-03-13T01:12:22;8.90;99.90
28761;DHT22;15917;50.014;8.352;2023-03-13T01:14:49;8.90;99.90
28761;DHT22;15917;50.014;8.352;2023-03-13T01:17:15;8.90;99.90
28761;DHT22;15917;50.014;8.352;2023-03-13T01:19:40;8.90;99.90
28761;DHT22;15917;50.014;8.352;2023-03-13T01:22:07;8.90;99.90
28761;DHT22;15917;50.014;8.352;2023-03-13T01:24:36;8.90;99.90
28761;DHT22;15917;50.014;8.352;2023-03-13T01:27:01;8.80;99.90
28761;DHT22;15917;50.014;8.352;2023-03-13T01:29:27;8.90;99.90
28761;DHT22;15917;50.014;8.352;2023-03-13T01:31:52;8.80;99.90
28761;DHT22;15917;50.014;8.352;2023-03-13T01:34:18;8.90;99.90
28761;DHT22;15917;50.014;8.352;2023-03-13T01:36:44;8.90;99.90
28761;DHT22;15917;50.014;8.352;2023-03-13T01:39:11;9.00;99.90
28761;DHT22;15917;50.014;8.352;2023-03-13T01:41:37;9.10;99.90
28761;DHT22;15917;50.014;8.352;2023-03-13T01:44:03;9.10;99.90
28761;DHT22;15917;50.014;8.352;2023-03-13T01:46:32;9.20;99.90
28761;DHT22;15917;50.014;8.352;2023-03-13T01:49:18;9.20;99.90
28761;DHT22;15917;50.014;8.352;2023-03-13T01:54:46;9.40;99.90
28761;DHT22;15917;50.014;8.352;2023-03-13T01:59:58;9.60;99.90
28761;DHT22;15917;50.014;8.352;2023-03-13T02:02:27;9.60;99.90
28761;DHT22;15917;50.014;8.352;2023-03-13T02:04:57;9.70;99.90
28761;DHT22;15917;50.014;8.352;2023-03-13T02:07:33;9.70;99.90
28761;DHT22;15917;50.014;8.352;2023-03-13T02:10:01;9.70;99.90
28761;DHT22;15917;50.014;8.352;2023-03-13T02:12:32;9.70;99.90
28761;DHT22;15917;50.014;8.352;2023-03-13T02:15:03;9.70;99.90
28761;DHT22;15917;50.014;8.352;2023-03-13T02:17:29;9.70;99.90
28761;DHT22;15917;50.014;8.352;2023-03-13T02:19:57;9.70;99.90
28761;DHT22;15917;50.014;8.352;2023-03-13T02:22:27;9.70;99.90
28761;DHT22;15917;50.014;8.352;2023-03-13T02:25:07;9.80;99.90
28761;DHT22;15917;50.014;8.352;2023-03-13T02:27:35;9.80;99.90
28761;DHT22;15917;50.014;8.352;2023-03-13T02:30:04;9.80;99.90
28761;DHT22;15917;50.014;8.352;2023-03-13T02:32:30;9.90;99.90
28761;DHT22;15917;50.014;8.352;2023-03-13T02:35:01;9.90;99.90
28761;DHT22;15917;50.014;8.352;2023-03-13T02:37:29;9.90;99.90
28761;DHT22;15917;50.014;8.352;2023-03-13T02:40:00;9.90;99.90
28761;DHT22;15917;50.014;8.352;2023-03-13T02:42:28;9.80;99.90
28761;DHT22;15917;50.014;8.352;2023-03-13T02:44:54;9.80;99.90
28761;DHT22;15917;50.014;8.352;2023-03-13T02:47:22;9.80;99.90
28761;DHT22;15917;50.014;8.352;2023-03-13T02:49:49;9.70;99.90
28761;DHT22;15917;50.014;8.352;2023-03-13T02:52:20;9.70;99.90
28761;DHT22;15917;50.014;8.352;2023-03-13T02:54:51;9.60;99.90
28761;DHT22;15917;50.014;8.352;2023-03-13T02:57:20;9.60;99.90
28761;DHT22;15917;50.014;8.352;2023-03-13T02:59:46;9.50;99.90
28761;DHT22;15917;50.014;8.352;2023-03-13T03:02:12;9.50;99.90
28761;DHT22;15917;50.014;8.352;2023-03-13T03:04:37;9.50;99.90
28761;DHT22;15917;50.014;8.352;2023-03-13T03:07:03;9.50;99.90
28761;DHT22;15917;50.014;8.352;2023-03-13T03:09:29;9.50;99.90
28761;DHT22;15917;50.014;8.352;2023-03-13T03:12:00;9.50;99.90
28761;DHT22;15917;50.014;8.352;2023-03-13T03:14:27;9.40;99.90
28761;DHT22;15917;50.014;8.352;2023-03-13T03:16:53;9.40;99.90
28761;DHT22;15917;50.014;8.352;2023-03-13T03:19:18;9.40;99.90
28761;DHT22;15917;50.014;8.352;2023-03-13T03:21:44;9.40;99.90
28761;DHT22;15917;50.014;8.352;2023-03-13T03:24:09;9.40;99.90
28761;DHT22;15917;50.014;8.352;2023-03-13T03:26:35;9.40;99.90
28761;DHT22;15917;50.014;8.352;2023-03-13T03:29:04;9.40;99.90
28761;DHT22;15917;50.014;8.352;2023-03-13T03:31:32;9.40;99.90
28761;DHT22;15917;50.014;8.352;2023-03-13T03:33:58;9.40;99.90
28761;DHT22;15917;50.014;8.352;2023-03-13T03:36:24;9.40;99.90
28761;DHT22;15917;50.014;8.352;2023-03-13T03:38:50;9.40;99.90
28761;DHT22;15917;50.014;8.352;2023-03-13T03:41:19;9.40;99.90
28761;DHT22;15917;50.014;8.352;2023-03-13T03:43:46;9.40;99.90
28761;DHT22;15917;50.014;8.352;2023-03-13T03:46:14;9.40;99.90
28761;DHT22;15917;50.014;8.352;2023-03-13T03:48:40;9.40;99.90
28761;DHT22;15917;50.014;8.352;2023-03-13T03:51:08;9.50;99.90
28761;DHT22;15917;50.014;8.352;2023-03-13T03:53:38;9.50;99.90
28761;DHT22;15917;50.014;8.352;2023-03-13T03:56:04;9.60;99.90
28761;DHT22;15917;50.014;8.352;2023-03-13T03:58:31;9.60;99.90
28761;DHT22;15917;50.014;8.352;2023-03-13T04:01:04;9.70;99.90
28761;DHT22;15917;50.014;8.352;2023-03-13T04:03:30;9.70;99.90
28761;DHT22;15917;50.014;8.352;2023-03-13T04:05:56;9.80;99.90
28761;DHT22;15917;50.014;8.352;2023-03-13T04:08:23;9.80;99.90
28761;DHT22;15917;50.014;8.352;2023-03-13T04:10:49;9.90;99.90
28761;DHT22;15917;50.014;8.352;2023-03-13T04:13:17;9.90;99.90
28761;DHT22;15917;50.014;8.352;2023-03-13T04:15:43;10.00;99.90
28761;DHT22;15917;50.014;8.352;2023-03-13T04:18:10;10.00;99.90
28761;DHT22;15917;50.014;8.352;2023-03-13T04:20:35;10.10;99.90
28761;DHT22;15917;50.014;8.352;2023-03-13T04:23:01;10.10;99.90
28761;DHT22;15917;50.014;8.352;2023-03-13T04:25:27;10.20;99.90
28761;DHT22;15917;50.014;8.352;2023-03-13T04:27:56;10.20;99.90
28761;DHT22;15917;50.014;8.352;2023-03-13T04:30:25;10.20;99.90
28761;DHT22;15917;50.014;8.352;2023-03-13T04:33:19;10.20;99.90
28761;DHT22;15917;50.014;8.352;2023-03-13T04:36:04;10.30;99.90
28761;DHT22;15917;50.014;8.352;2023-03-13T04:38:56;10.30;99.90
28761;DHT22;15917;50.014;8.352;2023-03-13T04:41:48;10.40;99.90
28761;DHT22;15917;50.014;8.352;2023-03-13T04:44:34;10.40;99.90
28761;DHT22;15917;50.014;8.352;2023-03-13T04:47:12;10.50;99.90
28761;DHT22;15917;50.014;8.352;2023-03-13T04:49:47;10.50;99.90
28761;DHT22;15917;50.014;8.352;2023-03-13T04:52:19;10.60;99.90
28761;DHT22;15917;50.014;8.352;2023-03-13T04:55:10;10.60;99.90
28761;DHT22;15917;50.014;8.352;2023-03-13T04:57:44;10.70;99.90
28761;DHT22;15917;50.014;8.352;2023-03-13T05:00:28;10.70;99.90
28761;DHT22;15917;50.014;8.352;2023-03-13T05:03:32;10.70;99.90
28761;DHT22;15917;50.014;8.352;2023-03-13T05:06:18;10.70;99.90
28761;DHT22;15917;50.014;8.352;2023-03-13T05:09:05;10.80;99.90
28761;DHT22;15917;50.014;8.352;2023-03-13T05:11:57;10.90;99.90
28761;DHT22;15917;50.014;8.352;2023-03-13T05:14:51;10.90;99.90
28761;DHT22;15917;50.014;8.352;2023-03-13T05:17:53;10.90;99.90
28761;DHT22;15917;50.014;8.352;2023-03-13T05:20:25;10.90;99.90
28761;DHT22;15917;50.014;8.352;2023-03-13T05:23:10;10.90;99.90
28761;DHT22;15917;50.014;8.352;2023-03-13T05:25:36;10.90;99.90
28761;DHT22;15917;50.014;8.352;2023-03-13T05:28:22;10.90;99.90
28761;DHT22;15917;50.014;8.352;2023-03-13T05:30:48;10.90;99.90
28761;DHT22;15917;50.014;8.352;2023-03-13T05:33:32;10.90;99.90
28761;DHT22;15917;50.014;8.352;2023-03-13T05:36:22;11.00;99.90
28761;DHT22;15917;50.014;8.352;2023-03-13T05:39:13;11.00;99.90
28761;DHT22;15917;50.014;8.352;2023-03-13T05:41:47;11.00;99.90
28761;DHT22;15917;50.014;8.352;2023-03-13T05:44:29;11.00;99.90
28761;DHT22;15917;50.014;8.352;2023-03-13T05:47:13;11.00;99.90
28761;DHT22;15917;50.014;8.352;2023-03-13T05:50:01;11.00;99.90
28761;DHT22;15917;50.014;8.352;2023-03-13T05:52:38;11.10;99.90
28761;DHT22;15917;50.014;8.352;2023-03-13T05:55:22;11.10;99.90
28761;DHT22;15917;50.014;8.352;2023-03-13T05:58:14;11.10;99.90
28761;DHT22;15917;50.014;8.352;2023-03-13T06:01:10;11.10;99.90
28761;DHT22;15917;50.014;8.352;2023-03-13T06:03:54;11.20;99.90
28761;DHT22;15917;50.014;8.352;2023-03-13T06:06:21;11.20;99.90
28761;DHT22;15917;50.014;8.352;2023-03-13T06:08:53;11.20;99.90
28761;DHT22;15917;50.014;8.352;2023-03-13T06:11:19;11.20;99.90
28761;DHT22;15917;50.014;8.352;2023-03-13T06:13:45;11.20;99.90
28761;DHT22;15917;50.014;8.352;2023-03-13T06:16:20;11.20;99.90
28761;DHT22;15917;50.014;8.352;2023-03-13T06:18:47;11.20;99.90
28761;DHT22;15917;50.014;8.352;2023-03-13T06:21:13;11.20;99.90
28761;DHT22;15917;50.014;8.352;2023-03-13T06:23:38;11.20;99.90
28761;DHT22;15917;50.014;8.352;2023-03-13T06:26:04;11.20;99.90
28761;DHT22;15917;50.014;8.352;2023-03-13T06:28:30;11.30;99.90
28761;DHT22;15917;50.014;8.352;2023-03-13T06:31:03;11.30;99.90
28761;DHT22;15917;50.014;8.352;2023-03-13T06:33:30;11.30;99.90
28761;DHT22;15917;50.014;8.352;2023-03-13T06:35:56;11.30;99.90
28761;DHT22;15917;50.014;8.352;2023-03-13T06:38:23;11.40;99.90
28761;DHT22;15917;50.014;8.352;2023-03-13T06:40:48;11.40;99.90
28761;DHT22;15917;50.014;8.352;2023-03-13T06:43:14;11.40;99.90
28761;DHT22;15917;50.014;8.352;2023-03-13T06:45:39;11.50;99.90
28761;DHT22;15917;50.014;8.352;2023-03-13T06:48:05;11.50;99.90
28761;DHT22;15917;50.014;8.352;2023-03-13T06:50:31;11.50;99.90
28761;DHT22;15917;50.014;8.352;2023-03-13T06:52:56;11.60;99.90
28761;DHT22;15917;50.014;8.352;2023-03-13T06:55:23;11.60;99.90
28761;DHT22;15917;50.014;8.352;2023-03-13T06:57:50;11.60;99.90
28761;DHT22;15917;50.014;8.352;2023-03-13T07:00:16;11.60;99.90
28761;DHT22;15917;50.014;8.352;2023-03-13T07:02:42;11.60;99.90
28761;DHT22;15917;50.014;8.352;2023-03-13T07:05:08;11.60;99.90
28761;DHT22;15917;50.014;8.352;2023-03-13T07:07:33;11.70;99.90
28761;DHT22;15917;50.014;8.352;2023-03-13T07:09:59;11.80;99.90
28761;DHT22;15917;50.014;8.352;2023-03-13T07:12:25;11.80;99.90
28761;DHT22;15917;50.014;8.352;2023-03-13T07:14:51;11.80;99.90
28761;DHT22;15917;50.014;8.352;2023-03-13T07:17:17;11.90;99.90
28761;DHT22;15917;50.014;8.352;2023-03-13T07:19:42;12.10;99.90
28761;DHT22;15917;50.014;8.352;2023-03-13T07:22:08;12.40;99.90
28761;DHT22;15917;50.014;8.352;2023-03-13T07:24:33;12.50;99.90
28761;DHT22;15917;50.014;8.352;2023-03-13T07:26:59;12.60;99.90
28761;DHT22;15917;50.014;8.352;2023-03-13T07:29:25;12.60;99.90
28761;DHT22;15917;50.014;8.352;2023-03-13T07:31:50;12.60;99.90
28761;DHT22;15917;50.014;8.352;2023-03-13T07:34:16;12.50;99.90
28761;DHT22;15917;50.014;8.352;2023-03-13T07:36:41;12.50;99.90
28761;DHT22;15917;50.014;8.352;2023-03-13T07:39:08;12.50;99.90
28761;DHT22;15917;50.014;8.352;2023-03-13T07:41:33;12.50;99.90
28761;DHT22;15917;50.014;8.352;2023-03-13T07:43:59;12.50;99.90
28761;DHT22;15917;50.014;8.352;2023-03-13T07:46:24;12.60;99.90
28761;DHT22;15917;50.014;8.352;2023-03-13T07:48:50;12.60;99.90
28761;DHT22;15917;50.014;8.352;2023-03-13T07:51:22;12.60;99.90
28761;DHT22;15917;50.014;8.352;2023-03-13T07:53:48;12.70;99.90
28761;DHT22;15917;50.014;8.352;2023-03-13T07:56:17;12.70;99.90
28761;DHT22;15917;50.014;8.352;2023-03-13T07:58:43;12.60;99.90
28761;DHT22;15917;50.014;8.352;2023-03-13T08:01:16;12.70;99.90
28761;DHT22;15917;50.014;8.352;2023-03-13T08:03:42;12.70;99.90
28761;DHT22;15917;50.014;8.352;2023-03-13T08:06:14;12.70;99.90
28761;DHT22;15917;50.014;8.352;2023-03-13T08:08:41;12.70;99.90
28761;DHT22;15917;50.014;8.352;2023-03-13T08:11:10;12.70;99.90
28761;DHT22;15917;50.014;8.352;2023-03-13T08:13:36;12.70;99.90
28761;DHT22;15917;50.014;8.352;2023-03-13T08:16:07;12.70;99.90
28761;DHT22;15917;50.014;8.352;2023-03-13T08:18:35;12.70;99.90
28761;DHT22;15917;50.014;8.352;2023-03-13T08:21:06;12.70;99.90
28761;DHT22;15917;50.014;8.352;2023-03-13T08:23:32;12.70;99.90
28761;DHT22;15917;50.014;8.352;2023-03-13T08:26:04;12.80;99.90
28761;DHT22;15917;50.014;8.352;2023-03-13T08:28:30;12.80;99.90
28761;DHT22;15917;50.014;8.352;2023-03-13T08:30:55;12.80;99.90
28761;DHT22;15917;50.014;8.352;2023-03-13T08:33:21;12.80;99.90
28761;DHT22;15917;50.014;8.352;2023-03-13T08:35:47;12.80;99.90
28761;DHT22;15917;50.014;8.352;2023-03-13T08:38:13;12.80;99.90
28761;DHT22;15917;50.014;8.352;2023-03-13T08:40:38;12.80;99.90
28761;DHT22;15917;50.014;8.352;2023-03-13T08:43:04;12.90;99.90
28761;DHT22;15917;50.014;8.352;2023-03-13T08:45:29;12.80;99.90
28761;DHT22;15917;50.014;8.352;2023-03-13T08:47:55;12.80;99.90
28761;DHT22;15917;50.014;8.352;2023-03-13T08:50:20;12.90;99.90
28761;DHT22;15917;50.014;8.352;2023-03-13T08:52:46;12.80;99.90
28761;DHT22;15917;50.014;8.352;2023-03-13T08:55:11;12.80;99.90
28761;DHT22;15917;50.014;8.352;2023-03-13T08:57:37;12.80;99.90
28761;DHT22;15917;50.014;8.352;2023-03-13T09:00:03;12.70;99.90
28761;DHT22;15917;50.014;8.352;2023-03-13T09:02:31;12.70;99.90
28761;DHT22;15917;50.014;8.352;2023-03-13T09:04:56;12.70;99.90
28761;DHT22;15917;50.014;8.352;2023-03-13T09:07:22;12.70;99.90
28761;DHT22;15917;50.014;8.352;2023-03-13T09:09:48;12.70;99.90
28761;DHT22;15917;50.014;8.352;2023-03-13T09:12:14;12.70;99.90
28761;DHT22;15917;50.014;8.352;2023-03-13T09:14:39;12.70;99.90
28761;DHT22;15917;50.014;8.352;2023-03-13T09:17:05;12.70;99.90
28761;DHT22;15917;50.014;8.352;2023-03-13T09:19:31;12.70;99.90
28761;DHT22;15917;50.014;8.352;2023-03-13T09:21:57;12.80;99.90
28761;DHT22;15917;50.014;8.352;2023-03-13T09:24:22;12.80;99.90
28761;DHT22;15917;50.014;8.352;2023-03-13T09:26:48;12.80;99.90
28761;DHT22;15917;50.014;8.352;2023-03-13T09:29:14;12.80;99.90
28761;DHT22;15917;50.014;8.352;2023-03-13T09:31:40;12.80;99.90
28761;DHT22;15917;50.014;8.352;2023-03-13T09:34:06;12.80;99.90
28761;DHT22;15917;50.014;8.352;2023-03-13T09:36:31;12.80;99.90
28761;DHT22;15917;50.014;8.352;2023-03-13T09:38:58;12.80;99.90
28761;DHT22;15917;50.014;8.352;2023-03-13T09:41:35;12.90;99.90
28761;DHT22;15917;50.014;8.352;2023-03-13T09:44:19;12.90;99.90
28761;DHT22;15917;50.014;8.352;2023-03-13T09:49:41;13.10;99.90
28761;DHT22;15917;50.014;8.352;2023-03-13T09:52:21;13.10;99.90
28761;DHT22;15917;50.014;8.352;2023-03-13T09:54:53;13.20;99.90
28761;DHT22;15917;50.014;8.352;2023-03-13T09:59:56;13.60;99.90
28761;DHT22;15917;50.014;8.352;2023-03-13T10:02:35;13.90;99.90
28761;DHT22;15917;50.014;8.352;2023-03-13T10:05:06;14.00;99.90
28761;DHT22;15917;50.014;8.352;2023-03-13T10:07:32;14.10;99.90
28761;DHT22;15917;50.014;8.352;2023-03-13T10:10:00;14.20;99.90
28761;DHT22;15917;50.014;8.352;2023-03-13T10:12:28;14.10;99.90
28761;DHT22;15917;50.014;8.352;2023-03-13T10:17:39;13.90;99.90
28761;DHT22;15917;50.014;8.352;2023-03-13T10:20:25;13.90;99.90
28761;DHT22;15917;50.014;8.352;2023-03-13T10:23:00;13.90;99.90
28761;DHT22;15917;50.014;8.352;2023-03-13T10:25:34;13.90;99.90
28761;DHT22;15917;50.014;8.352;2023-03-13T10:28:00;13.90;99.90
28761;DHT22;15917;50.014;8.352;2023-03-13T10:30:32;13.90;99.90
28761;DHT22;15917;50.014;8.352;2023-03-13T10:35:40;14.00;99.90
28761;DHT22;15917;50.014;8.352;2023-03-13T10:38:16;14.10;99.90
28761;DHT22;15917;50.014;8.352;2023-03-13T10:40:43;14.10;99.90
28761;DHT22;15917;50.014;8.352;2023-03-13T10:43:20;14.10;99.90
28761;DHT22;15917;50.014;8.352;2023-03-13T10:45:45;14.20;99.90
28761;DHT22;15917;50.014;8.352;2023-03-13T10:48:14;14.20;99.90
28761;DHT22;15917;50.014;8.352;2023-03-13T10:50:46;14.20;99.90
28761;DHT22;15917;50.014;8.352;2023-03-13T10:58:42;14.20;99.90
28761;DHT22;15917;50.014;8.352;2023-03-13T11:01:27;14.10;99.90
28761;DHT22;15917;50.014;8.352;2023-03-13T11:03:55;14.10;99.90
28761;DHT22;15917;50.014;8.352;2023-03-13T11:06:32;14.00;99.90
28761;DHT22;15917;50.014;8.352;2023-03-13T11:09:15;14.00;99.90
28761;DHT22;15917;50.014;8.352;2023-03-13T11:11:49;14.00;99.90
28761;DHT22;15917;50.014;8.352;2023-03-13T11:14:23;14.00;99.90
28761;DHT22;15917;50.014;8.352;2023-03-13T11:19:57;14.10;99.90
28761;DHT22;15917;50.014;8.352;2023-03-13T11:24:56;14.10;99.90
28761;DHT22;15917;50.014;8.352;2023-03-13T11:33:05;14.20;99.90
28761;DHT22;15917;50.014;8.352;2023-03-13T11:38:35;14.20;99.90
28761;DHT22;15917;50.014;8.352;2023-03-13T11:41:29;14.20;99.90
28761;DHT22;15917;50.014;8.352;2023-03-13T11:44:10;14.20;99.90
28761;DHT22;15917;50.014;8.352;2023-03-13T11:52:31;14.20;99.90
28761;DHT22;15917;50.014;8.352;2023-03-13T11:58:31;14.30;99.90
28761;DHT22;15917;50.014;8.352;2023-03-13T12:00:45;14.40;99.90
28761;DHT22;15917;50.014;8.352;2023-03-13T12:03:29;14.50;99.90
28761;DHT22;15917;50.014;8.352;2023-03-13T12:05:58;14.50;99.90
28761;DHT22;15917;50.014;8.352;2023-03-13T12:08:46;14.50;99.90
28761;DHT22;15917;50.014;8.352;2023-03-13T12:14:07;14.40;99.90
28761;DHT22;15917;50.014;8.352;2023-03-13T12:16:43;14.40;99.90
28761;DHT22;15917;50.014;8.352;2023-03-13T12:19:13;14.40;99.90
28761;DHT22;15917;50.014;8.352;2023-03-13T12:21:46;14.40;99.90
28761;DHT22;15917;50.014;8.352;2023-03-13T12:24:36;14.40;99.90
28761;DHT22;15917;50.014;8.352;2023-03-13T12:27:28;14.40;99.90
28761;DHT22;15917;50.014;8.352;2023-03-13T12:35:28;14.50;99.90
28761;DHT22;15917;50.014;8.352;2023-03-13T12:38:12;14.50;99.90
28761;DHT22;15917;50.014;8.352;2023-03-13T12:40:52;14.50;99.90
28761;DHT22;15917;50.014;8.352;2023-03-13T12:43:31;14.50;99.90
28761;DHT22;15917;50.014;8.352;2023-03-13T12:51:51;14.50;99.90
28761;DHT22;15917;50.014;8.352;2023-03-13T12:57:20;14.90;99.90
28761;DHT22;15917;50.014;8.352;2023-03-13T12:59:54;14.90;99.90
28761;DHT22;15917;50.014;8.352;2023-03-13T13:02:23;14.80;99.90
28761;DHT22;15917;50.014;8.352;2023-03-13T13:04:50;14.80;99.90
28761;DHT22;15917;50.014;8.352;2023-03-13T13:07:26;14.70;99.90
28761;DHT22;15917;50.014;8.352;2023-03-13T13:12:37;14.80;99.90
28761;DHT22;15917;50.014;8.352;2023-03-13T13:15:29;14.90;99.90
28761;DHT22;15917;50.014;8.352;2023-03-13T13:18:01;15.00;99.90
28761;DHT22;15917;50.014;8.352;2023-03-13T13:21:29;15.10;99.90
28761;DHT22;15917;50.014;8.352;2023-03-13T13:23:29;15.20;99.90
28761;DHT22;15917;50.014;8.352;2023-03-13T13:28:51;15.70;99.90
28761;DHT22;15917;50.014;8.352;2023-03-13T13:36:57;16.20;99.90
28761;DHT22;15917;50.014;8.352;2023-03-13T13:39:45;16.10;99.90
28761;DHT22;15917;50.014;8.352;2023-03-13T13:48:27;16.20;99.90
28761;DHT22;15917;50.014;8.352;2023-03-13T13:53:52;16.10;99.90
28761;DHT22;15917;50.014;8.352;2023-03-13T13:56:33;16.10;99.90
28761;DHT22;15917;50.014;8.352;2023-03-13T14:02:09;15.90;99.90
28761;DHT22;15917;50.014;8.352;2023-03-13T14:04:59;15.90;99.90
28761;DHT22;15917;50.014;8.352;2023-03-13T14:12:59;15.70;99.90
28761;DHT22;15917;50.014;8.352;2023-03-13T14:15:28;15.60;99.90
28761;DHT22;15917;50.014;8.352;2023-03-13T14:18:13;15.60;99.90
28761;DHT22;15917;50.014;8.352;2023-03-13T14:20:59;15.50;99.90
28761;DHT22;15917;50.014;8.352;2023-03-13T14:23:37;15.60;99.90
28761;DHT22;15917;50.014;8.352;2023-03-13T14:26:10;15.70;99.90
28761;DHT22;15917;50.014;8.352;2023-03-13T14:28:39;15.80;99.90
28761;DHT22;15917;50.014;8.352;2023-03-13T14:31:07;16.10;99.90
28761;DHT22;15917;50.014;8.352;2023-03-13T14:33:33;16.20;99.90
28761;DHT22;15917;50.014;8.352;2023-03-13T14:35:59;16.40;99.90
28761;DHT22;15917;50.014;8.352;2023-03-13T14:38:26;16.50;99.90
28761;DHT22;15917;50.014;8.352;2023-03-13T14:40:54;16.60;99.90
28761;DHT22;15917;50.014;8.352;2023-03-13T14:43:40;16.70;99.90
28761;DHT22;15917;50.014;8.352;2023-03-13T14:46:28;16.80;99.90
28761;DHT22;15917;50.014;8.352;2023-03-13T14:49:11;16.90;99.90
28761;DHT22;15917;50.014;8.352;2023-03-13T14:51:39;16.90;99.90
28761;DHT22;15917;50.014;8.352;2023-03-13T14:54:20;17.00;99.90
28761;DHT22;15917;50.014;8.352;2023-03-13T14:56:47;17.00;99.90
28761;DHT22;15917;50.014;8.352;2023-03-13T14:59:23;17.00;99.90
28761;DHT22;15917;50.014;8.352;2023-03-13T15:02:40;17.00;99.90
28761;DHT22;15917;50.014;8.352;2023-03-13T15:04:53;17.00;99.90
28761;DHT22;15917;50.014;8.352;2023-03-13T15:07:19;16.60;99.90
28761;DHT22;15917;50.014;8.352;2023-03-13T15:09:46;16.20;99.90
28761;DHT22;15917;50.014;8.352;2023-03-13T15:12:15;15.80;99.90
28761;DHT22;15917;50.014;8.352;2023-03-13T15:14:43;15.50;99.90
28761;DHT22;15917;50.014;8.352;2023-03-13T15:17:19;15.10;99.90
28761;DHT22;15917;50.014;8.352;2023-03-13T15:19:50;14.80;99.90
28761;DHT22;15917;50.014;8.352;2023-03-13T15:22:17;14.40;99.90
28761;DHT22;15917;50.014;8.352;2023-03-13T15:24:43;13.90;99.90
28761;DHT22;15917;50.014;8.352;2023-03-13T15:27:14;13.60;99.90
28761;DHT22;15917;50.014;8.352;2023-03-13T15:29:40;13.50;99.90
28761;DHT22;15917;50.014;8.352;2023-03-13T15:32:25;13.60;99.90
28761;DHT22;15917;50.014;8.352;2023-03-13T15:34:51;13.70;99.90
28761;DHT22;15917;50.014;8.352;2023-03-13T15:37:18;13.70;99.90
28761;DHT22;15917;50.014;8.352;2023-03-13T15:39:44;13.60;99.90
28761;DHT22;15917;50.014;8.352;2023-03-13T15:42:09;13.60;99.90
28761;DHT22;15917;50.014;8.352;2023-03-13T15:44:35;13.50;99.90
28761;DHT22;15917;50.014;8.352;2023-03-13T15:47:00;13.40;99.90
28761;DHT22;15917;50.014;8.352;2023-03-13T15:49:26;13.40;99.90
28761;DHT22;15917;50.014;8.352;2023-03-13T15:51:52;13.40;99.90
28761;DHT22;15917;50.014;8.352;2023-03-13T15:54:18;13.30;99.90
28761;DHT22;15917;50.014;8.352;2023-03-13T15:56:43;13.30;99.90
28761;DHT22;15917;50.014;8.352;2023-03-13T15:59:11;13.20;99.90
28761;DHT22;15917;50.014;8.352;2023-03-13T16:01:36;13.20;99.90
28761;DHT22;15917;50.014;8.352;2023-03-13T16:04:02;13.10;99.90
28761;DHT22;15917;50.014;8.352;2023-03-13T16:06:28;13.10;99.90
28761;DHT22;15917;50.014;8.352;2023-03-13T16:09:02;13.00;99.90
28761;DHT22;15917;50.014;8.352;2023-03-13T16:11:28;13.00;99.90
28761;DHT22;15917;50.014;8.352;2023-03-13T16:13:54;12.90;99.90
28761;DHT22;15917;50.014;8.352;2023-03-13T16:16:28;12.90;99.90
28761;DHT22;15917;50.014;8.352;2023-03-13T16:18:55;12.90;99.90
28761;DHT22;15917;50.014;8.352;2023-03-13T16:21:24;12.90;99.90
28761;DHT22;15917;50.014;8.352;2023-03-13T16:23:50;12.90;99.90
28761;DHT22;15917;50.014;8.352;2023-03-13T16:26:21;12.90;99.90
28761;DHT22;15917;50.014;8.352;2023-03-13T16:28:48;13.00;99.90
28761;DHT22;15917;50.014;8.352;2023-03-13T16:31:20;13.00;99.90
28761;DHT22;15917;50.014;8.352;2023-03-13T16:33:47;12.90;99.90
28761;DHT22;15917;50.014;8.352;2023-03-13T16:36:18;13.00;99.90
28761;DHT22;15917;50.014;8.352;2023-03-13T16:38:44;13.00;99.90
28761;DHT22;15917;50.014;8.352;2023-03-13T16:41:18;13.00;99.90
28761;DHT22;15917;50.014;8.352;2023-03-13T16:43:44;13.00;99.90
28761;DHT22;15917;50.014;8.352;2023-03-13T16:46:12;13.00;99.90
28761;DHT22;15917;50.014;8.352;2023-03-13T16:48:38;13.00;99.90
28761;DHT22;15917;50.014;8.352;2023-03-13T16:51:03;13.00;99.90
28761;DHT22;15917;50.014;8.352;2023-03-13T16:53:29;13.00;99.90
28761;DHT22;15917;50.014;8.352;2023-03-13T16:55:55;13.10;99.90
28761;DHT22;15917;50.014;8.352;2023-03-13T16:58:21;13.10;99.90
28761;DHT22;15917;50.014;8.352;2023-03-13T17:00:46;13.10;99.90
28761;DHT22;15917;50.014;8.352;2023-03-13T17:03:12;13.00;99.90
28761;DHT22;15917;50.014;8.352;2023-03-13T17:05:37;13.30;99.90
28761;DHT22;15917;50.014;8.352;2023-03-13T17:08:03;13.50;99.90
28761;DHT22;15917;50.014;8.352;2023-03-13T17:10:31;13.60;99.90
28761;DHT22;15917;50.014;8.352;2023-03-13T17:12:57;13.60;99.90
28761;DHT22;15917;50.014;8.352;2023-03-13T17:15:24;13.50;99.90
28761;DHT22;15917;50.014;8.352;2023-03-13T17:17:51;13.40;99.90
28761;DHT22;15917;50.014;8.352;2023-03-13T17:20:20;13.40;99.90
28761;DHT22;15917;50.014;8.352;2023-03-13T17:22:46;13.30;99.90
28761;DHT22;15917;50.014;8.352;2023-03-13T17:25:12;13.30;99.90
28761;DHT22;15917;50.014;8.352;2023-03-13T17:27:38;13.30;99.90